logo
Search for airport 
image banner adimage banner adimage banner ad
image banner ad

EHJH - K5-En/C

Located in , Netherlands

ICAO - , IATA -

Data provided by Airmate  

General information

Coordinates: N53°42'38" E3°30'40"
Elevation is feet MSL.
 
View others Airports in Noord-Holland

Operational data

Special qualification required
Current time UTC:
Current local time:
Weather at : EHJA - J6-A ( 39 km )
METAR: EHJA 041425Z AUTO 24032KT 9999 FEW019/// 15/10 Q1020
View NOTAMs / SUP AIP / TFR affecting this airport [VIEW]
Communications frequencies: [VIEW]

Runways:

Airport contact information

Address: Netherlands

Satellite view of EHJH